Time;durP1;ratioP1;P1;durP2;ratioP2;P2;SDS_P1;SDS_P2;PMS_P1;PMS_P2;Temp;Humidity;BMP_temperature;BMP_pressure;BME280_temperature;BME280_humidity;BME280_pressure;Samples;Min_cycle;Max_cycle;Signal;HPM_P1;HPM_P2
2023/09/21 00:01:52;;;;;;;7.30;6.80;;;15.90;99.90;;;;;;4972840;28;20213;-80
2023/09/21 00:04:20;;;;;;;7.90;7.30;;;15.90;99.90;;;;;;4976166;28;20202;-80
2023/09/21 00:06:49;;;;;;;7.50;7.00;;;15.90;99.90;;;;;;4975973;28;20203;-80
2023/09/21 00:09:16;;;;;;;8.10;7.50;;;15.80;99.90;;;;;;4977664;28;20228;-79
2023/09/21 00:11:44;;;;;;;8.23;7.70;;;15.90;99.90;;;;;;4984456;28;20294;-80
2023/09/21 00:14:11;;;;;;;8.47;7.80;;;15.90;99.90;;;;;;4975912;28;20288;-80
2023/09/21 00:16:40;;;;;;;8.20;7.63;;;15.90;99.90;;;;;;4976700;28;20244;-80
2023/09/21 00:19:10;;;;;;;8.13;7.33;;;16.00;99.90;;;;;;4975705;28;20556;-80
2023/09/21 00:21:37;;;;;;;7.90;7.40;;;16.00;99.90;;;;;;4976193;28;20194;-80
2023/09/21 00:24:05;;;;;;;8.50;7.90;;;16.10;99.90;;;;;;4975669;28;20256;-80
2023/09/21 00:26:34;;;;;;;8.07;7.47;;;16.10;99.90;;;;;;4975466;28;20214;-80
2023/09/21 00:29:03;;;;;;;7.93;7.43;;;16.10;99.90;;;;;;4977210;28;20201;-79
2023/09/21 00:31:30;;;;;;;7.97;7.47;;;16.20;99.90;;;;;;4975359;28;20741;-80
2023/09/21 00:33:57;;;;;;;8.00;7.50;;;16.20;99.90;;;;;;4975814;28;20206;-80
2023/09/21 00:36:26;;;;;;;8.30;7.77;;;16.20;99.90;;;;;;4975573;28;20228;-80
2023/09/21 00:38:55;;;;;;;8.47;7.93;;;16.30;99.90;;;;;;4977591;28;20626;-80
2023/09/21 00:41:21;;;;;;;8.10;7.50;;;16.30;99.90;;;;;;4975726;28;20661;-80
2023/09/21 00:43:48;;;;;;;8.40;7.80;;;16.30;99.90;;;;;;4975464;28;20201;-80
2023/09/21 00:46:15;;;;;;;8.33;7.80;;;16.30;99.90;;;;;;4974911;28;20200;-79
2023/09/21 00:48:42;;;;;;;8.50;7.90;;;16.30;99.90;;;;;;4975116;28;20256;-80
2023/09/21 00:51:12;;;;;;;7.97;7.47;;;16.30;99.90;;;;;;4975650;28;20221;-80
2023/09/21 00:53:44;;;;;;;8.40;7.80;;;16.20;99.90;;;;;;4975139;28;20210;-80
2023/09/21 00:56:13;;;;;;;8.07;7.57;;;16.20;99.90;;;;;;4983061;28;20216;-80
2023/09/21 00:58:44;;;;;;;8.13;7.60;;;16.20;99.90;;;;;;4967513;28;20207;-79
2023/09/21 01:01:18;;;;;;;8.50;7.90;;;16.20;99.90;;;;;;4975095;28;20237;-81
2023/09/21 01:03:46;;;;;;;8.40;7.83;;;16.20;99.90;;;;;;4975035;28;20260;-80
2023/09/21 01:06:16;;;;;;;8.30;7.70;;;16.20;99.90;;;;;;4984210;28;20212;-80
2023/09/21 01:08:45;;;;;;;8.30;7.80;;;16.20;99.90;;;;;;4974910;28;20643;-80
2023/09/21 01:11:14;;;;;;;8.63;8.03;;;16.20;99.90;;;;;;4977818;28;20593;-81
2023/09/21 01:13:41;;;;;;;7.97;7.47;;;16.20;99.90;;;;;;4973669;28;20296;-80
2023/09/21 01:16:10;;;;;;;8.90;8.20;;;16.20;99.90;;;;;;4974946;28;20949;-80
2023/09/21 01:18:40;;;;;;;8.57;7.93;;;16.10;99.90;;;;;;4976235;28;20202;-79
2023/09/21 01:21:09;;;;;;;8.30;7.80;;;16.10;99.90;;;;;;4974865;28;20222;-81
2023/09/21 01:23:43;;;;;;;8.40;7.80;;;16.20;99.90;;;;;;4975884;28;20194;-79
2023/09/21 01:26:11;;;;;;;8.53;7.83;;;16.20;99.90;;;;;;4974139;28;20198;-80
2023/09/21 01:28:38;;;;;;;8.43;7.83;;;16.20;99.90;;;;;;4974247;28;20244;-80
2023/09/21 01:31:06;;;;;;;8.67;7.97;;;16.20;99.90;;;;;;4975734;28;20218;-80
2023/09/21 01:33:34;;;;;;;8.60;8.00;;;16.20;99.90;;;;;;4971621;28;20646;-81
2023/09/21 01:36:00;;;;;;;8.33;7.83;;;16.20;99.90;;;;;;4974748;28;20209;-80
2023/09/21 01:38:28;;;;;;;8.83;8.23;;;16.20;99.90;;;;;;4974535;28;20232;-80
2023/09/21 01:40:59;;;;;;;8.87;8.17;;;16.10;99.90;;;;;;4974159;28;20281;-79
2023/09/21 01:43:26;;;;;;;8.67;8.07;;;16.20;99.90;;;;;;4974118;28;20211;-80
2023/09/21 01:45:53;;;;;;;8.70;8.10;;;16.20;99.90;;;;;;4976966;28;20219;-79
2023/09/21 01:48:20;;;;;;;9.10;8.40;;;16.20;99.90;;;;;;4978982;28;20201;-80
2023/09/21 01:50:48;;;;;;;8.60;8.00;;;16.10;99.90;;;;;;4974042;28;20640;-80
2023/09/21 01:53:16;;;;;;;8.60;8.00;;;16.10;99.90;;;;;;4973996;28;20683;-80
2023/09/21 01:55:44;;;;;;;8.57;8.00;;;16.10;99.90;;;;;;4974088;28;20240;-79
2023/09/21 01:58:13;;;;;;;9.73;9.03;;;16.10;99.90;;;;;;4973796;28;20205;-80
2023/09/21 02:00:40;;;;;;;9.47;8.80;;;16.00;99.90;;;;;;4973776;28;20232;-79
2023/09/21 02:03:11;;;;;;;10.00;9.30;;;16.00;99.90;;;;;;4973781;28;20206;-80
2023/09/21 02:05:38;;;;;;;9.07;8.47;;;16.00;99.90;;;;;;4973757;28;20260;-79
2023/09/21 02:08:06;;;;;;;9.30;8.70;;;16.00;99.90;;;;;;4973767;28;20256;-80
2023/09/21 02:10:33;;;;;;;9.50;8.80;;;16.00;99.90;;;;;;4981411;28;20577;-79
2023/09/21 02:13:01;;;;;;;9.17;8.57;;;15.90;99.90;;;;;;4975038;28;20681;-80
2023/09/21 02:15:30;;;;;;;9.63;9.00;;;15.90;99.90;;;;;;4973406;28;20191;-80
2023/09/21 02:17:57;;;;;;;9.40;8.60;;;15.90;99.90;;;;;;4961598;28;20304;-79
2023/09/21 02:20:24;;;;;;;9.37;8.47;;;15.90;99.90;;;;;;4973161;28;20228;-81
2023/09/21 02:22:57;;;;;;;9.50;8.80;;;15.90;99.90;;;;;;4973253;28;20248;-80
2023/09/21 02:25:24;;;;;;;9.10;8.50;;;15.90;99.90;;;;;;4973196;28;20653;-80
2023/09/21 02:27:51;;;;;;;9.00;8.40;;;15.90;99.90;;;;;;4973372;28;20268;-80
2023/09/21 02:30:21;;;;;;;9.77;8.87;;;15.80;99.90;;;;;;4973338;28;20225;-80
2023/09/21 02:32:50;;;;;;;9.43;8.80;;;15.80;99.90;;;;;;4973344;28;20202;-80
2023/09/21 02:35:22;;;;;;;9.47;8.73;;;15.80;99.90;;;;;;4974565;28;20209;-79
2023/09/21 02:37:50;;;;;;;9.60;8.93;;;15.80;99.90;;;;;;4972844;28;20210;-80
2023/09/21 02:40:19;;;;;;;9.87;9.10;;;15.80;99.90;;;;;;4973067;28;20250;-79
2023/09/21 02:42:48;;;;;;;9.40;8.80;;;15.90;99.90;;;;;;4974357;28;20659;-80
2023/09/21 02:45:16;;;;;;;9.70;8.83;;;15.90;99.90;;;;;;4973141;28;20236;-79
2023/09/21 02:47:43;;;;;;;8.93;8.33;;;15.90;99.90;;;;;;4972609;28;20253;-80
2023/09/21 02:50:16;;;;;;;8.87;8.27;;;15.80;99.90;;;;;;4973286;28;20218;-83
2023/09/21 02:52:46;;;;;;;9.27;8.67;;;15.80;99.90;;;;;;4974603;28;20668;-80
2023/09/21 02:55:16;;;;;;;9.80;9.10;;;15.80;99.90;;;;;;4972022;28;20201;-80
2023/09/21 02:57:45;;;;;;;9.00;8.40;;;15.80;99.90;;;;;;4967685;28;20222;-80
2023/09/21 03:00:19;;;;;;;9.43;8.73;;;15.80;99.90;;;;;;4972771;28;20217;-80
2023/09/21 03:02:46;;;;;;;9.33;8.73;;;15.80;99.90;;;;;;4972352;28;20197;-80
2023/09/21 03:05:16;;;;;;;9.87;9.27;;;15.80;99.90;;;;;;4969517;28;20217;-81
2023/09/21 03:07:44;;;;;;;9.60;8.90;;;15.80;99.90;;;;;;4972931;28;20297;-80
2023/09/21 03:10:11;;;;;;;9.90;9.10;;;15.80;99.90;;;;;;4969382;28;20713;-80
2023/09/21 03:12:38;;;;;;;9.60;8.80;;;15.80;99.90;;;;;;4973304;28;20206;-80
2023/09/21 03:15:13;;;;;;;9.87;9.17;;;15.70;99.90;;;;;;4972005;28;20217;-83
2023/09/21 03:17:41;;;;;;;9.80;9.10;;;15.80;99.90;;;;;;4968257;28;20712;-79
2023/09/21 03:20:25;;;;;;;9.20;8.50;;;15.80;99.90;;;;;;4971573;28;20601;-80
2023/09/21 03:22:55;;;;;;;10.07;9.27;;;15.80;99.90;;;;;;4972449;28;20202;-80
2023/09/21 03:25:32;;;;;;;10.30;9.60;;;15.80;99.90;;;;;;4972451;28;20292;-79
2023/09/21 03:28:00;;;;;;;8.97;8.37;;;15.80;99.90;;;;;;4980760;28;20201;-77
2023/09/21 03:30:27;;;;;;;9.93;9.23;;;15.80;99.90;;;;;;4964177;28;20221;-77
2023/09/21 03:32:54;;;;;;;9.60;8.90;;;15.80;99.90;;;;;;4979839;28;20294;-77
2023/09/21 03:35:26;;;;;;;9.27;8.50;;;15.80;99.90;;;;;;4974316;28;20190;-77
2023/09/21 03:37:54;;;;;;;9.57;8.97;;;15.70;99.90;;;;;;4972265;28;20209;-77
2023/09/21 03:40:21;;;;;;;8.83;8.23;;;15.70;99.90;;;;;;4974177;28;20708;-77
2023/09/21 03:42:48;;;;;;;9.30;8.60;;;15.70;99.90;;;;;;4972457;28;20205;-76
2023/09/21 03:45:16;;;;;;;9.50;8.90;;;15.70;99.90;;;;;;4971766;28;20206;-77
2023/09/21 03:47:43;;;;;;;9.30;8.70;;;15.70;99.90;;;;;;4973469;28;20191;-79
2023/09/21 03:50:17;;;;;;;9.00;8.30;;;15.60;99.90;;;;;;4973133;28;20249;-79
2023/09/21 03:52:44;;;;;;;8.53;7.93;;;15.60;99.90;;;;;;4973171;28;20205;-78
2023/09/21 03:55:15;;;;;;;8.70;8.10;;;15.60;99.90;;;;;;4973945;28;20197;-77
2023/09/21 03:57:46;;;;;;;8.70;8.10;;;15.60;99.90;;;;;;4973870;28;20328;-76
2023/09/21 04:00:29;;;;;;;8.73;8.13;;;15.60;99.90;;;;;;4972169;28;20221;-77
2023/09/21 04:02:58;;;;;;;9.10;8.50;;;15.60;99.90;;;;;;4964368;28;20252;-77
2023/09/21 04:05:26;;;;;;;9.00;8.40;;;15.60;99.90;;;;;;4972423;28;20590;-79
2023/09/21 04:07:53;;;;;;;9.00;8.40;;;15.60;99.90;;;;;;4975295;28;20237;-78
2023/09/21 04:10:22;;;;;;;8.50;8.00;;;15.70;99.90;;;;;;4975100;28;20228;-78
2023/09/21 04:12:50;;;;;;;8.83;8.23;;;15.70;99.90;;;;;;4973752;28;20249;-78
2023/09/21 04:15:18;;;;;;;9.40;8.80;;;15.70;99.90;;;;;;4973491;28;20235;-78
2023/09/21 04:17:45;;;;;;;9.27;8.67;;;15.70;99.90;;;;;;4975186;28;20200;-77
2023/09/21 04:20:14;;;;;;;9.27;8.67;;;15.70;99.90;;;;;;4973724;28;20279;-77
2023/09/21 04:22:42;;;;;;;9.17;8.57;;;15.70;99.90;;;;;;4973528;28;20648;-77
2023/09/21 04:25:13;;;;;;;9.40;8.70;;;15.70;99.90;;;;;;4977701;28;20254;-78
2023/09/21 04:27:43;;;;;;;9.33;8.67;;;15.60;99.90;;;;;;4976077;28;20216;-77
2023/09/21 04:30:14;;;;;;;9.30;8.70;;;15.70;99.90;;;;;;4966850;28;20245;-78
2023/09/21 04:32:41;;;;;;;9.13;8.53;;;15.70;99.90;;;;;;4973013;28;20736;-77
2023/09/21 04:35:09;;;;;;;9.27;8.63;;;15.70;99.90;;;;;;4961575;28;20212;-77
2023/09/21 04:37:38;;;;;;;9.00;8.40;;;15.70;99.90;;;;;;4972440;28;20669;-77
2023/09/21 04:40:09;;;;;;;9.20;8.60;;;15.70;99.90;;;;;;4981397;28;20251;-78
2023/09/21 04:42:38;;;;;;;9.30;8.70;;;15.70;99.90;;;;;;4977220;28;20220;-77
2023/09/21 04:45:09;;;;;;;9.63;9.03;;;15.70;99.90;;;;;;4983840;28;20270;-77
2023/09/21 04:47:37;;;;;;;9.70;9.10;;;15.70;99.90;;;;;;4974099;28;20211;-77
2023/09/21 04:50:05;;;;;;;10.57;9.87;;;15.70;99.90;;;;;;4985504;28;20223;-77
2023/09/21 04:52:32;;;;;;;10.30;9.60;;;15.70;99.90;;;;;;4979162;28;20198;-78
2023/09/21 04:55:00;;;;;;;10.90;10.20;;;15.70;99.90;;;;;;4986558;28;20706;-79
2023/09/21 04:57:30;;;;;;;10.73;10.03;;;15.70;99.90;;;;;;4978829;28;20210;-78
2023/09/21 04:59:57;;;;;;;11.40;10.70;;;15.70;99.90;;;;;;4978435;28;20311;-78
2023/09/21 05:02:26;;;;;;;11.10;10.40;;;15.70;99.90;;;;;;4979416;28;20256;-78
2023/09/21 05:04:53;;;;;;;10.70;9.97;;;15.70;99.90;;;;;;4977289;28;20389;-78
2023/09/21 05:07:20;;;;;;;10.10;9.50;;;15.70;99.90;;;;;;4977350;28;20204;-77
2023/09/21 05:09:47;;;;;;;10.33;9.63;;;15.60;99.90;;;;;;4976609;28;20312;-78
2023/09/21 05:12:16;;;;;;;10.20;9.60;;;15.60;99.90;;;;;;4974004;28;20194;-78
2023/09/21 05:14:44;;;;;;;10.50;9.80;;;15.60;99.90;;;;;;4980824;28;20750;-78
2023/09/21 05:17:11;;;;;;;10.63;9.83;;;15.60;99.90;;;;;;4977818;28;20240;-78
2023/09/21 05:19:40;;;;;;;10.80;10.10;;;15.60;99.90;;;;;;4977143;28;20228;-77
2023/09/21 05:22:08;;;;;;;10.50;9.80;;;15.60;99.90;;;;;;4977726;28;20267;-77
2023/09/21 05:24:36;;;;;;;11.00;10.20;;;15.60;99.90;;;;;;4978230;28;20209;-78
2023/09/21 05:27:03;;;;;;;10.50;9.80;;;15.60;99.90;;;;;;4979603;28;20210;-78
2023/09/21 05:29:30;;;;;;;10.90;10.10;;;15.70;99.90;;;;;;4977443;28;20259;-78
2023/09/21 05:31:57;;;;;;;10.90;10.20;;;15.70;99.90;;;;;;4987331;28;20195;-78
2023/09/21 05:34:25;;;;;;;9.80;9.20;;;15.70;99.90;;;;;;4976380;28;20201;-78
2023/09/21 05:36:54;;;;;;;11.00;10.30;;;15.80;99.90;;;;;;4977062;28;20206;-77
2023/09/21 05:39:23;;;;;;;9.90;9.30;;;15.80;99.90;;;;;;4976230;28;20263;-76
2023/09/21 05:41:50;;;;;;;10.40;9.70;;;15.90;99.90;;;;;;4975901;28;20313;-78
2023/09/21 05:44:21;;;;;;;10.60;9.90;;;15.90;99.90;;;;;;4991338;28;20253;-77
2023/09/21 05:46:49;;;;;;;10.67;9.97;;;16.00;99.90;;;;;;4975273;28;20297;-78
2023/09/21 05:49:22;;;;;;;10.40;9.70;;;16.00;99.90;;;;;;4977858;28;20311;-77
2023/09/21 05:51:52;;;;;;;10.40;9.60;;;16.00;99.90;;;;;;4974118;28;20212;-77
2023/09/21 05:54:23;;;;;;;10.20;9.40;;;16.10;99.90;;;;;;4975784;28;20252;-77
2023/09/21 05:56:51;;;;;;;9.87;9.17;;;16.20;99.90;;;;;;4977611;28;20197;-78
2023/09/21 05:59:18;;;;;;;9.97;9.27;;;16.20;99.90;;;;;;4976405;28;20237;-77
2023/09/21 06:01:45;;;;;;;10.03;9.37;;;16.30;99.90;;;;;;4975204;28;20312;-78
2023/09/21 06:04:12;;;;;;;9.57;8.90;;;16.40;99.90;;;;;;4977093;28;20207;-78
2023/09/21 06:06:39;;;;;;;10.00;9.30;;;16.40;99.90;;;;;;4977145;28;20253;-78
2023/09/21 06:09:07;;;;;;;9.80;9.20;;;16.60;99.90;;;;;;4975883;28;20560;-78
2023/09/21 06:11:35;;;;;;;10.23;9.53;;;16.70;99.90;;;;;;4976813;28;20193;-78
2023/09/21 06:14:02;;;;;;;10.17;9.47;;;16.80;99.90;;;;;;4974721;28;20205;-78
2023/09/21 06:16:32;;;;;;;11.10;10.40;;;16.90;99.90;;;;;;4975476;28;20281;-78
2023/09/21 06:18:59;;;;;;;11.33;10.50;;;17.00;99.90;;;;;;4974838;28;20647;-78
2023/09/21 06:21:27;;;;;;;7.63;6.93;;;17.10;99.90;;;;;;4977214;28;20272;-78
2023/09/21 06:23:54;;;;;;;3.93;3.53;;;17.10;99.90;;;;;;4975894;28;20248;-78
2023/09/21 06:26:22;;;;;;;6.03;3.70;;;17.20;99.90;;;;;;4975552;28;20249;-78
2023/09/21 06:28:50;;;;;;;9.40;8.70;;;17.30;99.90;;;;;;4975726;28;20257;-78
2023/09/21 06:31:20;;;;;;;9.43;8.73;;;17.30;99.90;;;;;;4975435;28;20190;-78
2023/09/21 06:33:47;;;;;;;10.20;9.43;;;17.50;99.90;;;;;;4975824;28;20202;-78
2023/09/21 06:36:20;;;;;;;10.27;9.57;;;17.80;99.90;;;;;;4973414;28;20296;-78
2023/09/21 06:38:47;;;;;;;7.90;7.30;;;17.90;99.90;;;;;;4975372;28;20200;-78
2023/09/21 06:41:14;;;;;;;10.13;9.37;;;18.10;99.90;;;;;;4973320;28;20230;-78
2023/09/21 06:43:42;;;;;;;9.27;8.57;;;18.40;99.90;;;;;;4973863;28;20202;-78
2023/09/21 06:46:10;;;;;;;9.73;9.03;;;18.50;99.90;;;;;;4973542;28;20218;-78
2023/09/21 06:48:38;;;;;;;4.80;3.97;;;18.70;99.90;;;;;;4973395;28;20228;-78
2023/09/21 06:51:07;;;;;;;8.07;7.47;;;18.80;99.90;;;;;;4975775;28;20275;-78
2023/09/21 06:53:34;;;;;;;4.50;4.10;;;18.80;99.90;;;;;;4974440;28;20205;-78
2023/09/21 06:56:01;;;;;;;8.33;7.73;;;18.80;99.90;;;;;;4973517;28;20213;-77
2023/09/21 06:58:30;;;;;;;6.43;5.93;;;18.90;99.90;;;;;;4975633;28;20203;-78
2023/09/21 07:00:57;;;;;;;4.53;3.30;;;19.00;99.90;;;;;;4974577;28;20594;-78
2023/09/21 07:03:25;;;;;;;8.50;7.80;;;19.20;99.90;;;;;;4975238;28;20255;-78
2023/09/21 07:05:52;;;;;;;10.10;9.30;;;19.50;99.90;;;;;;4980693;28;20683;-78
2023/09/21 07:08:20;;;;;;;9.00;8.27;;;19.80;99.90;;;;;;4977460;28;20253;-78
2023/09/21 07:10:48;;;;;;;12.37;8.80;;;20.00;99.90;;;;;;4981378;28;20704;-78
2023/09/21 07:13:18;;;;;;;9.30;8.50;;;20.40;99.90;;;;;;4968426;28;20689;-78
2023/09/21 07:15:46;;;;;;;8.07;7.47;;;20.70;99.90;;;;;;4981134;28;20696;-79
2023/09/21 07:18:13;;;;;;;9.00;8.20;;;20.90;99.90;;;;;;4972866;28;20760;-79
2023/09/21 07:20:41;;;;;;;4.90;3.80;;;21.00;99.90;;;;;;4972932;28;20593;-79
2023/09/21 07:23:08;;;;;;;5.13;3.67;;;21.10;99.90;;;;;;4972531;28;20225;-79
2023/09/21 07:25:35;;;;;;;5.57;5.07;;;21.20;99.90;;;;;;4968117;28;20197;-78
2023/09/21 07:28:02;;;;;;;7.10;6.40;;;21.30;99.90;;;;;;4974303;28;20198;-79
2023/09/21 07:30:31;;;;;;;9.60;8.80;;;21.60;99.90;;;;;;4969913;28;20277;-79
2023/09/21 07:32:58;;;;;;;9.50;8.67;;;21.70;99.90;;;;;;4974022;28;20217;-79
2023/09/21 07:35:24;;;;;;;10.60;9.10;;;21.80;99.90;;;;;;4971990;28;20212;-79
2023/09/21 07:37:52;;;;;;;6.90;6.20;;;21.70;99.90;;;;;;4973900;28;20276;-79
2023/09/21 07:40:21;;;;;;;9.60;9.00;;;21.60;99.90;;;;;;4973628;28;20221;-79
2023/09/21 07:42:50;;;;;;;9.70;9.00;;;21.90;99.90;;;;;;4973207;28;20227;-84
2023/09/21 07:45:17;;;;;;;9.80;9.10;;;22.40;99.90;;;;;;4972444;28;20202;-83
2023/09/21 07:47:45;;;;;;;9.83;9.17;;;22.80;99.90;;;;;;4973060;28;20620;-83
2023/09/21 07:50:12;;;;;;;10.20;9.40;;;22.90;99.90;;;;;;4974076;28;20305;-82
2023/09/21 07:52:39;;;;;;;10.17;9.37;;;23.00;99.90;;;;;;4970507;28;20249;-83
2023/09/21 07:55:09;;;;;;;5.90;5.40;;;22.80;99.90;;;;;;4984716;28;20264;-81
2023/09/21 07:57:37;;;;;;;5.97;5.47;;;22.60;99.90;;;;;;4986144;28;20204;-81
2023/09/21 08:00:06;;;;;;;5.90;5.40;;;22.50;99.90;;;;;;4987903;28;20328;-82
2023/09/21 08:02:33;;;;;;;5.93;5.43;;;22.70;99.90;;;;;;4982630;28;20224;-83
2023/09/21 08:05:02;;;;;;;6.23;5.73;;;22.70;99.90;;;;;;4981462;28;20656;-83
2023/09/21 08:07:29;;;;;;;6.57;5.73;;;22.70;99.90;;;;;;4985394;28;20677;-83
2023/09/21 08:09:56;;;;;;;5.83;5.23;;;22.70;99.90;;;;;;4984482;28;20225;-83
2023/09/21 08:12:25;;;;;;;8.30;7.40;;;22.80;99.90;;;;;;4981181;28;20201;-83
2023/09/21 08:14:52;;;;;;;7.63;5.80;;;22.80;99.90;;;;;;4971674;28;20621;-83
2023/09/21 08:17:19;;;;;;;7.23;6.53;;;22.80;99.90;;;;;;4972895;28;20229;-80
2023/09/21 08:19:46;;;;;;;8.67;7.97;;;23.00;99.90;;;;;;4973067;28;20234;-80
2023/09/21 08:22:13;;;;;;;9.97;9.20;;;23.00;99.90;;;;;;4973707;28;20290;-81
2023/09/21 08:24:41;;;;;;;6.53;6.03;;;23.00;99.90;;;;;;4975834;28;20202;-81
2023/09/21 08:27:08;;;;;;;5.20;4.80;;;23.10;99.90;;;;;;4976065;28;20735;-80
2023/09/21 08:29:36;;;;;;;8.93;7.03;;;23.10;99.90;;;;;;4976559;28;20214;-81
2023/09/21 08:32:04;;;;;;;6.20;5.20;;;23.10;99.90;;;;;;4977613;28;20248;-81
2023/09/21 08:34:30;;;;;;;7.87;7.17;;;23.20;99.90;;;;;;4976631;28;20209;-80
2023/09/21 08:36:57;;;;;;;8.70;8.00;;;23.20;99.90;;;;;;4977260;28;20202;-81
2023/09/21 08:39:24;;;;;;;9.77;9.00;;;23.50;99.90;;;;;;4975442;28;20225;-80
2023/09/21 08:41:52;;;;;;;7.53;7.03;;;24.10;99.90;;;;;;4975188;28;20696;-81
2023/09/21 08:44:19;;;;;;;9.37;8.50;;;24.40;99.90;;;;;;4977111;28;20202;-81
2023/09/21 08:46:48;;;;;;;9.17;8.40;;;24.60;99.90;;;;;;4977184;28;20190;-81
2023/09/21 08:49:16;;;;;;;3.50;3.20;;;25.10;99.90;;;;;;4974656;28;20317;-81
2023/09/21 08:51:44;;;;;;;6.70;6.00;;;25.40;99.90;;;;;;4975214;28;20240;-81
2023/09/21 08:54:13;;;;;;;8.97;8.30;;;26.00;99.90;;;;;;4978277;28;20206;-80
2023/09/21 08:56:42;;;;;;;9.10;8.33;;;26.20;99.90;;;;;;4975837;28;20206;-82
2023/09/21 08:59:09;;;;;;;3.30;2.97;;;25.80;99.90;;;;;;4976616;28;20194;-81
2023/09/21 09:01:36;;;;;;;4.57;3.07;;;25.90;99.90;;;;;;4975847;28;20221;-81
2023/09/21 09:04:05;;;;;;;4.87;3.50;;;26.10;99.90;;;;;;4976359;28;20205;-81
2023/09/21 09:06:32;;;;;;;4.40;3.33;;;26.50;99.90;;;;;;4983699;28;20202;-81
2023/09/21 09:09:00;;;;;;;6.57;6.07;;;26.80;99.90;;;;;;4977582;28;20202;-82
2023/09/21 09:11:34;;;;;;;7.50;7.00;;;27.00;99.90;;;;;;4977184;28;20257;-82
2023/09/21 09:14:01;;;;;;;8.77;8.17;;;26.80;99.90;;;;;;4975286;28;20216;-82
2023/09/21 09:16:28;;;;;;;7.83;7.33;;;26.90;99.90;;;;;;4974654;28;20198;-81
2023/09/21 09:19:00;;;;;;;7.67;7.17;;;27.10;99.90;;;;;;4980333;28;20201;-81
2023/09/21 09:21:30;;;;;;;7.13;6.60;;;27.20;99.90;;;;;;4976831;28;20225;-81
2023/09/21 09:23:57;;;;;;;6.13;5.70;;;27.00;99.90;;;;;;4974114;28;20780;-81
2023/09/21 09:26:24;;;;;;;7.47;6.97;;;26.80;99.90;;;;;;4974236;28;20228;-81
2023/09/21 09:28:51;;;;;;;8.03;7.53;;;27.00;99.90;;;;;;4974352;28;20210;-81
2023/09/21 09:31:18;;;;;;;8.67;7.97;;;27.40;99.90;;;;;;4974063;28;20202;-82
2023/09/21 09:33:48;;;;;;;8.23;7.63;;;27.40;99.90;;;;;;4974343;28;20190;-82
2023/09/21 09:36:15;;;;;;;8.20;7.70;;;27.40;99.90;;;;;;4972344;28;20296;-86
2023/09/21 09:38:43;;;;;;;8.30;7.70;;;27.40;99.90;;;;;;4973942;28;20207;-85
2023/09/21 09:41:14;;;;;;;8.40;7.90;;;27.30;99.90;;;;;;4990620;28;20217;-85
2023/09/21 09:43:43;;;;;;;8.23;7.60;;;27.20;99.90;;;;;;4986823;28;20763;-84
2023/09/21 09:46:12;;;;;;;8.13;7.63;;;27.10;99.90;;;;;;4983357;28;20288;-84
2023/09/21 09:48:40;;;;;;;7.77;7.20;;;26.80;99.90;;;;;;4981124;28;20613;-86
2023/09/21 09:51:11;;;;;;;3.57;3.27;;;26.60;99.90;;;;;;4986844;28;20221;-84
2023/09/21 09:53:40;;;;;;;5.67;5.17;;;26.50;99.90;;;;;;4984449;28;20599;-88
2023/09/21 09:56:09;;;;;;;6.83;6.33;;;26.30;99.90;;;;;;4989345;28;20682;-86
2023/09/21 09:58:40;;;;;;;7.17;6.67;;;26.00;99.90;;;;;;4987925;28;20296;-83
2023/09/21 10:01:09;;;;;;;8.03;7.53;;;25.90;99.90;;;;;;4985012;28;20279;-85
2023/09/21 10:03:38;;;;;;;7.60;7.10;;;26.00;99.90;;;;;;4986127;28;20299;-82
2023/09/21 10:06:08;;;;;;;7.20;6.80;;;26.00;99.90;;;;;;4987404;28;20216;-85
2023/09/21 10:08:36;;;;;;;7.77;7.27;;;26.10;99.90;;;;;;4976370;28;20198;-85
2023/09/21 10:11:06;;;;;;;8.00;7.50;;;26.20;99.90;;;;;;4982162;28;20224;-83
2023/09/21 10:13:36;;;;;;;7.27;6.80;;;26.30;99.90;;;;;;4983761;28;20562;-83
2023/09/21 10:16:05;;;;;;;8.40;7.80;;;26.60;99.90;;;;;;4990300;28;20230;-84
2023/09/21 10:18:36;;;;;;;7.70;7.20;;;26.80;99.90;;;;;;4984783;28;20669;-83
2023/09/21 10:21:23;;;;;;;7.93;7.33;;;27.00;99.90;;;;;;4978715;28;20288;-84
2023/09/21 10:24:04;;;;;;;8.33;7.60;;;27.00;99.90;;;;;;4984576;28;20604;-83
2023/09/21 10:26:35;;;;;;;7.80;7.30;;;27.10;99.90;;;;;;4981507;28;20221;-83
2023/09/21 10:29:04;;;;;;;6.13;5.73;;;27.30;99.90;;;;;;4980937;28;20213;-83
2023/09/21 10:31:34;;;;;;;7.30;6.80;;;27.50;99.90;;;;;;4985772;28;20293;-83
2023/09/21 10:34:18;;;;;;;7.60;7.10;;;27.40;99.90;;;;;;4988965;28;20696;-83
2023/09/21 10:36:50;;;;;;;5.00;4.43;;;27.40;99.90;;;;;;4974141;28;20204;-83
2023/09/21 10:39:25;;;;;;;6.70;6.30;;;27.40;99.90;;;;;;4988460;28;20719;-83
2023/09/21 10:41:53;;;;;;;3.10;2.90;;;27.30;99.90;;;;;;4991754;28;20200;-84
2023/09/21 10:45:00;;;;;;;6.70;6.30;;;27.30;99.90;;;;;;4979761;28;20294;-84
2023/09/21 10:47:38;;;;;;;7.80;7.10;;;27.10;99.90;;;;;;4952487;28;20205;-83
2023/09/21 10:50:10;;;;;;;7.13;6.70;;;26.70;99.90;;;;;;4983750;28;20225;-83
2023/09/21 10:52:40;;;;;;;4.43;3.80;;;26.60;99.90;;;;;;4992364;28;20204;-84
2023/09/21 10:55:08;;;;;;;7.23;6.83;;;26.60;99.90;;;;;;4983683;28;20584;-83
2023/09/21 10:57:35;;;;;;;7.30;6.70;;;26.50;99.90;;;;;;4988306;28;20296;-83
2023/09/21 11:00:08;;;;;;;2.87;2.67;;;26.40;99.90;;;;;;4976029;28;20233;-84
2023/09/21 11:02:36;;;;;;;7.33;6.73;;;26.60;99.90;;;;;;4990339;28;20217;-84
2023/09/21 11:05:03;;;;;;;4.80;3.93;;;26.60;99.90;;;;;;4987287;28;20301;-83
2023/09/21 11:07:31;;;;;;;4.63;4.33;;;26.50;99.90;;;;;;4982730;28;20216;-83
2023/09/21 11:09:57;;;;;;;6.83;6.33;;;26.20;99.90;;;;;;4981292;28;20228;-84
2023/09/21 11:12:24;;;;;;;5.63;5.23;;;26.10;99.90;;;;;;4983471;28;20213;-82
2023/09/21 11:14:51;;;;;;;7.67;7.17;;;26.20;99.90;;;;;;4989360;28;20209;-84
2023/09/21 11:17:19;;;;;;;5.90;5.40;;;26.40;99.90;;;;;;4985401;28;20205;-82
2023/09/21 11:19:47;;;;;;;5.10;4.70;;;26.60;99.90;;;;;;4991584;28;20245;-83
2023/09/21 11:22:15;;;;;;;5.00;4.60;;;26.60;99.90;;;;;;4985364;28;20206;-84
2023/09/21 11:24:42;;;;;;;4.30;4.03;;;26.60;99.90;;;;;;4970789;28;20229;-83
2023/09/21 11:27:10;;;;;;;6.00;4.63;;;26.60;99.90;;;;;;4980702;28;20198;-83
2023/09/21 11:29:39;;;;;;;4.30;4.00;;;26.50;99.90;;;;;;4975081;28;20214;-83
2023/09/21 11:32:10;;;;;;;4.60;4.30;;;26.40;99.90;;;;;;4973438;28;20261;-83
2023/09/21 11:34:40;;;;;;;4.83;4.53;;;26.50;99.90;;;;;;4977449;28;20611;-83
2023/09/21 11:37:09;;;;;;;6.53;6.13;;;26.60;99.90;;;;;;4973165;28;20205;-83
2023/09/21 11:39:37;;;;;;;6.80;6.40;;;26.50;99.90;;;;;;4974519;28;20229;-83
2023/09/21 11:42:07;;;;;;;6.20;5.80;;;26.40;99.90;;;;;;4973072;28;20673;-83
2023/09/21 11:44:36;;;;;;;6.63;6.23;;;26.30;99.90;;;;;;4972401;28;20222;-83
2023/09/21 11:47:03;;;;;;;4.87;4.47;;;26.30;99.90;;;;;;4976067;28;20257;-83
2023/09/21 11:49:41;;;;;;;6.70;6.20;;;26.30;99.90;;;;;;4974885;28;20788;-83
2023/09/21 11:52:09;;;;;;;2.87;2.43;;;26.30;99.90;;;;;;4967582;28;20633;-83
2023/09/21 11:54:38;;;;;;;2.73;2.50;;;26.40;99.90;;;;;;4974033;28;20268;-82
2023/09/21 11:57:09;;;;;;;2.70;2.50;;;26.40;99.90;;;;;;4979274;28;20202;-83
2023/09/21 11:59:39;;;;;;;2.63;2.43;;;26.60;99.90;;;;;;4984600;28;20226;-83
2023/09/21 12:02:09;;;;;;;2.47;2.30;;;26.90;99.90;;;;;;4977333;28;20217;-83
2023/09/21 12:04:38;;;;;;;7.00;6.40;;;27.10;99.90;;;;;;4978988;28;20222;-83
2023/09/21 12:07:07;;;;;;;6.20;5.80;;;27.30;99.90;;;;;;4979564;28;20676;-83
2023/09/21 12:09:37;;;;;;;6.53;6.13;;;27.50;99.90;;;;;;4978682;28;20221;-83
2023/09/21 12:12:06;;;;;;;6.77;6.37;;;27.50;99.90;;;;;;4977469;28;20202;-83
2023/09/21 12:14:33;;;;;;;5.43;5.03;;;27.60;99.90;;;;;;4978432;28;20260;-83
2023/09/21 12:17:04;;;;;;;3.10;2.83;;;27.50;99.90;;;;;;4978453;28;20221;-84
2023/09/21 12:19:32;;;;;;;6.90;6.50;;;27.40;99.90;;;;;;4977706;28;20233;-83
2023/09/21 12:21:59;;;;;;;6.97;6.57;;;27.40;99.90;;;;;;4976882;28;20225;-83
2023/09/21 12:24:27;;;;;;;3.23;2.67;;;27.30;99.90;;;;;;4976516;28;20232;-83
2023/09/21 12:26:54;;;;;;;6.37;6.00;;;27.20;99.90;;;;;;4968097;28;20221;-83
2023/09/21 12:29:22;;;;;;;7.37;6.87;;;27.00;99.90;;;;;;4976912;28;20230;-83
2023/09/21 12:31:50;;;;;;;7.30;6.70;;;27.00;99.90;;;;;;4978054;28;20208;-83
2023/09/21 12:34:19;;;;;;;7.00;6.60;;;26.90;99.90;;;;;;4977846;28;20253;-83
2023/09/21 12:36:49;;;;;;;6.87;6.47;;;26.80;99.90;;;;;;4976735;28;20202;-83
2023/09/21 12:39:16;;;;;;;6.60;6.20;;;26.80;99.90;;;;;;4976420;28;20237;-83
2023/09/21 12:41:44;;;;;;;6.90;6.50;;;26.90;99.90;;;;;;4977439;28;20209;-83
2023/09/21 12:44:11;;;;;;;6.50;6.10;;;26.90;99.90;;;;;;4979700;28;20214;-83
2023/09/21 12:46:38;;;;;;;7.17;6.70;;;27.00;99.90;;;;;;4977358;28;20213;-83
2023/09/21 12:49:05;;;;;;;6.60;6.20;;;27.00;99.90;;;;;;4971804;28;20194;-84
2023/09/21 12:51:33;;;;;;;7.10;6.70;;;27.10;99.90;;;;;;4976955;28;20206;-84
2023/09/21 12:54:00;;;;;;;7.47;6.90;;;27.10;99.90;;;;;;4970869;28;20206;-83